Time;durP1;ratioP1;P1;durP2;ratioP2;P2;SDS_P1;SDS_P2;PMS_P1;PMS_P2;Temp;Humidity;BMP_temperature;BMP_pressure;BME280_temperature;BME280_humidity;BME280_pressure;Samples;Min_cycle;Max_cycle;Signal;HPM_P1;HPM_P2
2021/11/07 00:04:35;;;;;;;20.48;16.73;;;;;;;9.45;63.00;99735.19;5132908;27;20020;-52
2021/11/07 00:10:17;;;;;;;23.40;17.38;;;;;;;9.47;62.90;99732.41;5133074;27;20054;-52
2021/11/07 00:12:25;;;;;;;27.50;17.98;;;;;;;9.47;62.91;99716.69;5127176;27;20035;-52
2021/11/07 00:14:52;;;;;;;26.52;18.35;;;;;;;9.40;62.81;99722.59;5133187;27;20184;-52
2021/11/07 00:17:24;;;;;;;23.27;17.58;;;;;;;9.45;62.90;99722.09;5133095;27;20015;-52
2021/11/07 00:19:54;;;;;;;20.65;16.45;;;;;;;9.51;62.80;99723.25;5133443;27;20019;-52
2021/11/07 00:22:27;;;;;;;27.13;16.95;;;;;;;9.50;62.54;99722.44;5133125;27;20052;-52
2021/11/07 00:25:05;;;;;;;22.98;17.05;;;;;;;9.48;62.44;99729.63;5132957;27;20088;-51
2021/11/07 00:27:39;;;;;;;75.40;58.35;;;;;;;9.42;62.47;99726.84;5133019;27;20079;-52
2021/11/07 00:32:50;;;;;;;51.15;43.13;;;;;;;9.33;62.70;99726.88;5132948;27;20019;-52
2021/11/07 00:37:47;;;;;;;21.70;16.08;;;;;;;9.37;62.64;99704.59;5133114;27;20377;-52
2021/11/07 00:40:23;;;;;;;24.77;16.30;;;;;;;9.47;62.47;99712.25;5132821;27;20031;-52
2021/11/07 00:43:03;;;;;;;20.70;15.40;;;;;;;9.54;62.00;99686.22;5132849;27;20054;-51
2021/11/07 00:51:06;;;;;;;27.13;16.65;;;;;;;9.53;61.59;99674.91;5132744;28;20039;-52
2021/11/07 00:58:43;;;;;;;21.02;16.20;;;;;;;9.48;61.58;99672.00;5132663;28;20042;-52
2021/11/07 01:01:12;;;;;;;22.88;15.85;;;;;;;9.44;61.85;99677.72;5132964;28;20027;-52
2021/11/07 01:03:40;;;;;;;22.23;16.10;;;;;;;9.42;61.61;99679.69;5132589;28;20051;-52
2021/11/07 01:06:05;;;;;;;30.13;24.52;;;;;;;9.38;61.53;99672.19;5114027;28;20023;-52
2021/11/07 01:08:31;;;;;;;21.67;15.70;;;;;;;9.36;61.78;99668.09;5132319;28;20038;-52
2021/11/07 01:10:58;;;;;;;25.08;17.48;;;;;;;9.39;61.59;99670.38;5114114;28;20445;-52
2021/11/07 01:13:25;;;;;;;18.42;15.73;;;;;;;9.39;61.38;99663.31;5132561;28;20023;-52
2021/11/07 01:15:51;;;;;;;23.58;14.70;;;;;;;9.44;61.37;99664.63;5132453;27;20103;-51
2021/11/07 01:18:18;;;;;;;25.50;17.42;;;;;;;9.45;61.27;99666.25;5117855;27;20030;-52
2021/11/07 01:20:44;;;;;;;19.65;14.85;;;;;;;9.31;61.23;99662.53;5136508;27;20026;-52
2021/11/07 01:25:48;;;;;;;21.33;15.82;;;;;;;9.56;61.53;99650.19;5136389;27;20442;-52
2021/11/07 01:28:15;;;;;;;22.88;15.20;;;;;;;9.69;61.07;99650.44;5136448;27;20027;-52
2021/11/07 01:30:56;;;;;;;20.48;16.52;;;;;;;9.55;60.30;99657.22;5136387;27;20396;-52
2021/11/07 01:33:25;;;;;;;25.08;16.77;;;;;;;9.04;61.85;99659.31;5136436;27;20027;-51
2021/11/07 01:38:50;;;;;;;22.80;15.27;;;;;;;9.26;61.58;99663.03;5136558;27;20042;-52
2021/11/07 01:41:23;;;;;;;;;;;;;;;9.34;61.64;99646.50;5136049;27;20086;-52
2021/11/07 01:43:50;;;;;;;23.25;14.63;;;;;;;9.44;60.82;99643.66;5136132;27;19911;-52
2021/11/07 01:46:27;;;;;;;20.10;14.77;;;;;;;9.42;60.78;99650.88;5136075;27;20068;-52
2021/11/07 01:51:22;;;;;;;19.92;14.90;;;;;;;9.29;60.87;99644.34;5135945;27;20110;-52
2021/11/07 01:53:49;;;;;;;22.27;15.93;;;;;;;9.22;61.32;99643.41;5135935;27;20046;-52
2021/11/07 01:56:15;;;;;;;24.73;16.00;;;;;;;9.24;61.40;99638.81;5135837;27;20019;-51
2021/11/07 01:58:42;;;;;;;17.63;13.80;;;;;;;9.30;61.35;99643.38;5135764;27;20514;-51
2021/11/07 02:01:09;;;;;;;18.52;14.45;;;;;;;9.36;61.45;99649.75;5135735;27;20062;-51
2021/11/07 02:03:36;;;;;;;21.10;14.82;;;;;;;9.42;60.74;99656.09;5135622;27;20457;-51
2021/11/07 02:06:03;;;;;;;22.85;15.98;;;;;;;9.39;60.79;99655.47;5135665;27;20023;-51
2021/11/07 02:08:29;;;;;;;21.45;16.25;;;;;;;9.25;61.15;99647.50;5135408;27;20043;-51
2021/11/07 02:10:56;;;;;;;26.65;16.13;;;;;;;9.15;61.12;99658.16;5135585;27;20065;-51
2021/11/07 02:13:24;;;;;;;21.08;14.73;;;;;;;9.06;61.57;99648.69;5135470;27;20110;-51
2021/11/07 02:15:51;;;;;;;19.20;14.75;;;;;;;9.04;61.19;99641.00;5135454;27;20023;-52
2021/11/07 02:18:17;;;;;;;21.10;15.63;;;;;;;9.02;61.39;99637.72;5135468;27;20023;-51
2021/11/07 02:20:45;;;;;;;23.88;15.15;;;;;;;8.97;61.94;99634.78;5135252;27;20019;-52
2021/11/07 02:23:14;;;;;;;23.98;15.93;;;;;;;8.98;61.84;99631.19;5135237;27;20142;-52
2021/11/07 02:25:43;;;;;;;19.77;14.82;;;;;;;8.97;61.24;99626.91;5135250;27;20062;-50
2021/11/07 02:28:10;;;;;;;27.73;23.65;;;;;;;8.80;61.33;99619.09;5134166;27;20398;-51
2021/11/07 02:30:39;;;;;;;26.17;15.77;;;;;;;8.82;61.73;99616.31;5135105;27;20024;-52
2021/11/07 02:33:05;;;;;;;17.83;14.00;;;;;;;8.93;61.43;99612.53;5135131;27;20023;-52
2021/11/07 02:35:31;;;;;;;18.42;13.27;;;;;;;9.00;61.19;99606.47;5135339;27;20023;-51
2021/11/07 02:37:58;;;;;;;16.30;14.20;;;;;;;8.98;60.96;99605.81;5135094;27;20023;-51
2021/11/07 02:40:25;;;;;;;20.48;14.45;;;;;;;8.92;61.22;99603.88;5134945;27;20033;-51
2021/11/07 02:42:52;;;;;;;16.25;13.02;;;;;;;8.93;61.25;99592.44;5135009;27;20391;-52
2021/11/07 02:45:20;;;;;;;25.85;15.40;;;;;;;8.95;61.46;99593.06;5134843;27;20344;-51
2021/11/07 02:47:48;;;;;;;18.00;12.75;;;;;;;8.97;60.95;99596.34;5134903;27;20571;-51
2021/11/07 02:50:16;;;;;;;18.60;13.20;;;;;;;8.99;61.03;99590.91;5116348;27;20050;-51
2021/11/07 02:52:43;;;;;;;18.38;13.82;;;;;;;9.00;60.90;99588.13;5134786;27;20023;-51
2021/11/07 02:55:10;;;;;;;15.20;13.20;;;;;;;8.93;61.09;99583.72;5116249;27;20433;-51
2021/11/07 02:57:36;;;;;;;20.30;13.75;;;;;;;8.90;61.09;99582.28;5134683;27;20392;-52
2021/11/07 03:00:08;;;;;;;16.67;13.55;;;;;;;8.87;61.50;99584.41;5134921;27;20015;-52
2021/11/07 03:02:34;;;;;;;17.42;13.98;;;;;;;8.85;61.47;99592.41;5116106;27;20035;-51
2021/11/07 03:05:00;;;;;;;25.35;14.93;;;;;;;8.88;61.52;99586.88;5116024;27;20045;-51
2021/11/07 03:07:26;;;;;;;19.33;13.32;;;;;;;8.86;61.58;99591.44;5134451;27;20492;-52
2021/11/07 03:09:52;;;;;;;19.63;13.50;;;;;;;8.87;61.37;99593.06;5134293;27;20051;-51
2021/11/07 03:12:18;;;;;;;17.05;13.75;;;;;;;8.87;61.68;99600.91;5134337;27;20020;-51
2021/11/07 03:14:47;;;;;;;18.80;14.88;;;;;;;8.89;61.46;99583.25;5115851;27;20030;-52
2021/11/07 03:17:17;;;;;;;19.33;15.23;;;;;;;8.80;61.36;99592.94;5134231;27;20030;-52
2021/11/07 03:19:43;;;;;;;16.30;13.95;;;;;;;8.69;61.53;99587.22;5134203;27;20052;-52
2021/11/07 03:22:17;;;;;;;18.40;14.02;;;;;;;8.62;61.61;99583.63;5134176;27;20023;-52
2021/11/07 03:24:44;;;;;;;18.45;15.15;;;;;;;8.54;61.90;99585.28;5134136;27;20027;-51
2021/11/07 03:27:17;;;;;;;21.35;14.57;;;;;;;8.43;61.91;99579.53;5115578;27;20103;-52
2021/11/07 03:29:52;;;;;;;19.85;14.60;;;;;;;8.36;62.12;99568.91;5134089;27;20023;-52
2021/11/07 03:32:21;;;;;;;18.80;13.98;;;;;;;8.39;62.29;99563.31;5134007;27;20038;-52
2021/11/07 03:34:54;;;;;;;22.05;16.33;;;;;;;8.35;62.31;99552.41;5133945;27;20039;-52
2021/11/07 03:37:26;;;;;;;17.75;15.65;;;;;;;8.31;62.38;99551.09;5133883;27;20038;-52
2021/11/07 03:39:55;;;;;;;17.88;15.65;;;;;;;8.29;63.06;99554.84;5133691;27;20453;-52
2021/11/07 03:42:22;;;;;;;17.80;13.63;;;;;;;8.30;62.41;99552.06;5133754;27;20039;-52
2021/11/07 03:44:48;;;;;;;18.08;15.05;;;;;;;8.33;62.27;99551.75;5133639;27;20023;-52
2021/11/07 03:47:14;;;;;;;20.25;15.35;;;;;;;8.23;62.71;99545.03;5133631;27;20023;-52
2021/11/07 03:49:41;;;;;;;22.17;15.38;;;;;;;8.14;62.70;99545.03;5133668;27;20488;-52
2021/11/07 03:52:10;;;;;;;20.38;15.55;;;;;;;8.19;63.07;99544.56;5115451;27;20023;-51
2021/11/07 03:54:36;;;;;;;20.95;15.18;;;;;;;8.14;62.68;99545.03;5115091;27;20027;-52
2021/11/07 03:57:03;;;;;;;23.02;16.88;;;;;;;8.09;63.22;99538.66;5133473;27;20022;-52
2021/11/07 03:59:30;;;;;;;23.48;16.13;;;;;;;8.02;63.57;99535.06;5133502;27;20037;-52
2021/11/07 04:01:56;;;;;;;26.15;15.57;;;;;;;8.04;63.39;99536.53;5115011;27;20026;-52
2021/11/07 04:04:23;;;;;;;20.38;15.00;;;;;;;8.16;63.43;99537.03;5133309;27;20023;-52
2021/11/07 04:06:50;;;;;;;23.05;14.45;;;;;;;8.18;63.34;99533.25;5133356;27;20042;-52
2021/11/07 04:09:16;;;;;;;22.63;16.42;;;;;;;8.26;63.36;99540.28;5133048;27;20080;-52
2021/11/07 04:11:43;;;;;;;17.38;13.77;;;;;;;8.31;63.30;99538.03;5114774;27;20020;-51
2021/11/07 04:14:11;;;;;;;19.05;15.60;;;;;;;8.34;63.55;99542.91;5133168;27;20038;-52
2021/11/07 04:16:38;;;;;;;23.10;20.60;;;;;;;8.48;63.50;99541.47;5133147;27;20019;-51
2021/11/07 04:19:06;;;;;;;16.88;13.68;;;;;;;8.61;62.48;99543.56;5133197;27;20019;-51
2021/11/07 04:21:32;;;;;;;17.77;14.23;;;;;;;8.66;62.48;99540.47;5133073;27;20106;-51
2021/11/07 04:23:58;;;;;;;26.23;14.55;;;;;;;8.71;62.69;99538.13;5132902;27;20027;-51
2021/11/07 04:26:24;;;;;;;17.75;13.45;;;;;;;8.76;62.00;99530.63;5133171;27;20027;-52
2021/11/07 04:28:51;;;;;;;59.88;53.55;;;;;;;8.71;62.41;99523.28;5133003;27;20519;-52
2021/11/07 04:31:17;;;;;;;21.67;16.20;;;;;;;8.69;61.75;99520.00;5132933;27;20019;-51
2021/11/07 04:33:43;;;;;;;21.10;13.75;;;;;;;8.71;61.51;99510.19;5132922;27;20034;-52
2021/11/07 04:36:10;;;;;;;23.40;13.68;;;;;;;8.62;61.74;99518.22;5132943;27;20019;-51
2021/11/07 04:38:37;;;;;;;18.70;13.52;;;;;;;8.62;62.35;99519.03;5114435;28;20050;-51
2021/11/07 04:41:05;;;;;;;20.35;13.25;;;;;;;8.66;62.20;99519.53;5132877;27;20037;-52
2021/11/07 04:43:31;;;;;;;20.08;15.18;;;;;;;8.72;62.23;99529.31;5132710;27;20022;-51
2021/11/07 04:45:57;;;;;;;21.15;14.07;;;;;;;8.62;61.75;99534.75;5132769;27;20019;-51
2021/11/07 04:48:23;;;;;;;22.05;14.98;;;;;;;8.50;62.52;99526.41;5114348;28;20030;-52
2021/11/07 04:50:50;;;;;;;16.52;14.10;;;;;;;8.39;62.80;99526.72;5114959;27;20512;-51
2021/11/07 04:53:20;;;;;;;22.73;14.68;;;;;;;8.31;62.86;99530.19;5139334;27;20443;-51
2021/11/07 04:55:46;;;;;;;18.98;12.88;;;;;;;8.30;62.75;99525.09;5139606;27;20023;-51
2021/11/07 04:58:12;;;;;;;21.73;16.05;;;;;;;8.31;63.33;99526.72;5121020;27;20472;-52
2021/11/07 05:00:39;;;;;;;19.85;14.20;;;;;;;8.46;62.98;99529.53;5139537;27;20110;-51
2021/11/07 05:03:06;;;;;;;18.83;13.25;;;;;;;8.51;62.51;99535.06;5139409;27;20034;-52
2021/11/07 05:05:32;;;;;;;18.60;13.55;;;;;;;8.52;62.40;99537.53;5121030;27;20015;-51
2021/11/07 05:07:58;;;;;;;19.50;13.40;;;;;;;8.52;62.63;99534.91;5139228;27;20043;-52
2021/11/07 05:10:25;;;;;;;17.55;13.63;;;;;;;8.45;62.52;99528.72;5139756;27;20034;-51
2021/11/07 05:12:52;;;;;;;18.83;13.68;;;;;;;8.42;62.69;99534.28;5120947;27;20488;-52
2021/11/07 05:15:19;;;;;;;22.17;14.15;;;;;;;8.49;63.04;99539.66;5120822;27;20496;-52
2021/11/07 05:17:45;;;;;;;17.90;13.73;;;;;;;8.38;62.71;99536.38;5120891;27;20632;-53
2021/11/07 05:20:12;;;;;;;19.42;13.98;;;;;;;8.22;63.25;99535.56;5139249;27;20022;-52
2021/11/07 05:22:38;;;;;;;17.35;14.10;;;;;;;8.20;62.98;99530.50;5139354;27;20026;-51
2021/11/07 05:25:06;;;;;;;19.08;13.68;;;;;;;8.13;63.06;99534.72;5139173;27;20031;-52
2021/11/07 05:27:33;;;;;;;18.83;14.20;;;;;;;8.12;63.19;99533.13;5139319;27;20043;-52
2021/11/07 05:29:58;;;;;;;25.83;14.95;;;;;;;8.24;63.30;99531.81;5139225;27;20077;-52
2021/11/07 05:32:24;;;;;;;20.60;14.40;;;;;;;8.27;63.48;99544.56;5120724;27;20523;-51
2021/11/07 05:34:50;;;;;;;21.20;13.70;;;;;;;8.29;63.30;99539.16;5139235;27;20033;-52
2021/11/07 05:37:16;;;;;;;18.88;12.95;;;;;;;8.41;63.56;99543.13;5120644;27;20019;-52
2021/11/07 05:39:42;;;;;;;20.98;14.05;;;;;;;8.42;62.76;99544.72;5139178;27;20023;-51
2021/11/07 05:42:10;;;;;;;21.17;14.25;;;;;;;8.41;62.76;99553.59;5139140;27;20530;-52
2021/11/07 05:44:36;;;;;;;23.75;15.77;;;;;;;8.34;63.09;99552.56;5139115;27;20155;-52
2021/11/07 05:47:02;;;;;;;21.92;14.15;;;;;;;8.29;63.06;99558.28;5139048;27;20019;-52
2021/11/07 05:49:28;;;;;;;18.00;13.80;;;;;;;8.28;63.07;99555.84;5139122;27;20543;-52
2021/11/07 05:51:54;;;;;;;24.38;13.82;;;;;;;8.22;63.24;99557.28;5139045;27;20090;-52
2021/11/07 05:54:19;;;;;;;26.10;13.82;;;;;;;8.25;63.18;99553.53;5138979;27;20180;-51
2021/11/07 05:56:45;;;;;;;20.98;14.50;;;;;;;8.15;63.52;99543.25;5120570;27;20516;-51
2021/11/07 05:59:10;;;;;;;20.50;14.95;;;;;;;8.09;64.15;99549.94;5138953;27;20125;-52
2021/11/07 06:01:37;;;;;;;18.92;14.57;;;;;;;8.15;63.89;99548.50;5138944;27;20016;-52
2021/11/07 06:04:04;;;;;;;24.23;14.70;;;;;;;8.25;64.01;99550.91;5136152;27;20507;-52
2021/11/07 06:06:31;;;;;;;19.17;13.68;;;;;;;8.33;63.58;99556.97;5135672;27;20019;-52
2021/11/07 06:08:57;;;;;;;18.77;14.25;;;;;;;8.43;63.35;99562.06;5135266;27;20039;-52
2021/11/07 06:11:22;;;;;;;17.40;13.95;;;;;;;8.35;63.01;99564.63;5135624;27;20531;-52
2021/11/07 06:13:49;;;;;;;21.33;14.40;;;;;;;8.23;63.35;99565.94;5135591;27;20464;-52
2021/11/07 06:16:15;;;;;;;19.45;13.88;;;;;;;8.07;63.80;99562.38;5117007;27;20023;-52
2021/11/07 06:18:41;;;;;;;20.17;14.05;;;;;;;8.02;63.89;99562.03;5135737;27;20472;-52
2021/11/07 06:21:09;;;;;;;21.40;15.65;;;;;;;8.00;64.03;99558.75;5135423;27;20392;-52
2021/11/07 06:23:35;;;;;;;25.50;13.90;;;;;;;8.04;64.38;99567.91;5135371;27;20045;-52
2021/11/07 06:26:01;;;;;;;17.00;12.88;;;;;;;8.16;64.17;99574.44;5135371;27;20104;-52
2021/11/07 06:28:27;;;;;;;19.60;13.95;;;;;;;8.24;63.66;99573.63;5135354;27;20038;-52
2021/11/07 06:30:53;;;;;;;20.00;14.38;;;;;;;8.20;63.43;99572.34;5116745;27;20023;-51
2021/11/07 06:33:19;;;;;;;19.63;15.23;;;;;;;8.16;63.52;99582.28;5135235;27;20179;-51
2021/11/07 06:35:46;;;;;;;18.30;14.07;;;;;;;8.15;64.05;99590.31;5116705;27;20027;-51
2021/11/07 06:38:12;;;;;;;20.80;12.77;;;;;;;8.25;63.88;99592.75;5135166;27;20023;-52
2021/11/07 06:40:40;;;;;;;29.50;18.58;;;;;;;8.29;63.65;99594.06;5116526;27;20072;-51
2021/11/07 06:43:07;;;;;;;20.00;12.75;;;;;;;8.36;63.04;99595.88;5135011;27;20020;-51
2021/11/07 06:45:35;;;;;;;17.38;12.98;;;;;;;8.46;63.20;99603.59;5134989;27;20396;-52
2021/11/07 06:48:01;;;;;;;18.38;12.98;;;;;;;8.44;62.61;99604.75;5116463;27;20042;-51
2021/11/07 06:50:27;;;;;;;20.35;13.50;;;;;;;8.47;62.61;99609.63;5134930;27;20046;-52
2021/11/07 06:52:53;;;;;;;26.35;15.65;;;;;;;8.46;62.87;99597.53;5134784;27;20042;-52
2021/11/07 06:55:19;;;;;;;25.23;13.32;;;;;;;8.39;62.91;99605.19;5116273;27;20035;-52
2021/11/07 06:57:45;;;;;;;17.88;12.88;;;;;;;8.42;62.65;99602.28;5134780;27;20027;-51
2021/11/07 07:00:15;;;;;;;21.73;13.43;;;;;;;8.39;62.58;99603.41;5116147;27;20586;-51
2021/11/07 07:02:41;;;;;;;27.05;13.32;;;;;;;8.36;63.27;99603.72;5134672;27;20030;-52
2021/11/07 07:05:08;;;;;;;18.13;13.57;;;;;;;8.39;63.00;99613.03;5134465;27;20027;-52
2021/11/07 07:07:37;;;;;;;19.17;12.13;;;;;;;8.43;62.79;99606.53;5134537;27;20011;-52
2021/11/07 07:10:07;;;;;;;19.95;13.13;;;;;;;8.35;62.48;99619.56;5134248;27;20050;-52
2021/11/07 07:12:45;;;;;;;17.13;12.38;;;;;;;8.35;62.31;99615.19;5134455;27;20480;-51
2021/11/07 07:15:16;;;;;;;21.95;12.75;;;;;;;8.21;62.92;99623.66;5133862;27;20095;-52
2021/11/07 07:28:43;;;;;;;19.55;12.02;;;;;;;8.63;62.32;99624.50;5109699;27;20047;-51
2021/11/07 07:36:02;;;;;;;15.38;10.27;;;;;;;8.72;61.67;99616.50;5134157;27;20572;-52
2021/11/07 07:38:28;;;;;;;21.65;11.98;;;;;;;8.82;61.95;99611.09;5133884;27;20128;-52
2021/11/07 07:40:53;;;;;;;21.92;11.43;;;;;;;9.00;61.27;99606.47;5133824;27;20015;-51
2021/11/07 07:43:20;;;;;;;17.95;10.80;;;;;;;9.14;60.90;99606.78;5115249;27;20114;-52
2021/11/07 07:45:46;;;;;;;17.02;10.63;;;;;;;9.20;60.67;99598.25;5133657;27;20063;-51
2021/11/07 07:48:12;;;;;;;21.38;11.07;;;;;;;9.26;60.46;99605.41;5133705;27;20406;-51
2021/11/07 07:50:40;;;;;;;14.85;10.93;;;;;;;9.33;60.42;99605.56;5115167;27;20019;-51
2021/11/07 07:53:07;;;;;;;18.25;10.63;;;;;;;9.34;60.27;99601.97;5133570;27;20023;-51
2021/11/07 07:55:34;;;;;;;20.02;10.70;;;;;;;9.41;60.32;99600.28;5133487;27;20016;-52
2021/11/07 07:58:00;;;;;;;15.93;10.10;;;;;;;9.52;59.78;99602.53;5133543;27;20046;-51
2021/11/07 08:00:26;;;;;;;24.60;10.43;;;;;;;9.64;59.88;99599.50;5133486;27;20027;-52
2021/11/07 08:02:52;;;;;;;15.43;10.38;;;;;;;9.69;59.55;99597.22;5133414;27;20396;-52
2021/11/07 08:05:17;;;;;;;17.08;10.00;;;;;;;9.78;59.50;99602.25;5133353;27;20068;-52
2021/11/07 08:07:43;;;;;;;15.40;9.77;;;;;;;9.85;58.88;99591.06;5133340;27;20023;-52
2021/11/07 08:10:12;;;;;;;19.83;10.27;;;;;;;9.93;58.60;99591.00;5133031;27;20047;-52
2021/11/07 08:12:39;;;;;;;16.38;9.55;;;;;;;9.94;58.92;99592.63;5133257;27;20030;-52
2021/11/07 08:15:07;;;;;;;16.30;9.65;;;;;;;10.00;58.72;99579.66;5133245;27;20019;-52
2021/11/07 08:17:34;;;;;;;18.65;10.57;;;;;;;10.08;58.31;99570.94;5133228;27;20479;-52
2021/11/07 08:20:03;;;;;;;18.65;10.95;;;;;;;10.20;58.19;99560.81;5133420;27;20031;-52
2021/11/07 08:22:29;;;;;;;23.30;10.35;;;;;;;10.39;57.91;99556.94;5133097;27;20105;-51
2021/11/07 08:24:54;;;;;;;12.80;9.80;;;;;;;10.49;57.55;99556.69;5132980;27;20099;-52
2021/11/07 08:27:20;;;;;;;16.13;10.70;;;;;;;10.51;57.40;99546.81;5132250;27;20034;-52
2021/11/07 08:29:51;;;;;;;23.77;10.90;;;;;;;10.54;57.51;99539.41;5132991;27;20022;-51
2021/11/07 08:32:17;;;;;;;18.65;10.88;;;;;;;10.69;57.06;99547.28;5133011;27;20076;-51
2021/11/07 08:34:43;;;;;;;21.08;10.60;;;;;;;10.81;56.69;99541.59;5114481;27;20023;-51
2021/11/07 08:37:12;;;;;;;17.83;11.10;;;;;;;10.93;56.54;99542.78;5132965;27;20070;-52
2021/11/07 08:39:46;;;;;;;15.80;10.15;;;;;;;10.96;56.37;99531.91;5133104;27;20490;-52
2021/11/07 08:42:16;;;;;;;17.90;11.00;;;;;;;10.90;56.21;99532.63;5132841;27;20019;-52
2021/11/07 09:04:20;;;;;;;18.42;11.90;;;;;;;10.78;56.58;99519.13;5132850;28;20400;-52
2021/11/07 09:09:16;;;;;;;17.77;10.55;;;;;;;11.63;54.47;99512.50;5132320;28;20043;-53
2021/11/07 09:11:55;;;;;;;16.27;11.27;;;;;;;11.69;53.84;99511.75;5132538;28;20438;-52
2021/11/07 09:14:24;;;;;;;17.58;11.00;;;;;;;11.69;53.93;99509.13;5132557;28;20088;-53
2021/11/07 09:16:51;;;;;;;16.75;10.40;;;;;;;11.60;54.01;99511.03;5132451;28;20030;-53
2021/11/07 09:19:21;;;;;;;18.42;11.07;;;;;;;11.66;53.94;99506.84;5132550;28;20023;-52
2021/11/07 09:21:52;;;;;;;15.93;10.23;;;;;;;11.92;53.53;99506.31;5132443;28;20030;-52
2021/11/07 09:27:09;;;;;;;11.85;8.18;;;;;;;12.24;53.30;99501.53;5132494;28;20026;-52
2021/11/07 09:29:52;;;;;;;15.23;10.40;;;;;;;12.47;51.61;99506.53;5132390;28;20034;-52
2021/11/07 09:40:10;;;;;;;16.17;10.48;;;;;;;12.83;51.06;99500.28;5136208;27;20042;-52
2021/11/07 09:42:54;;;;;;;79.65;33.08;;;;;;;12.91;50.85;99492.22;5136198;27;20068;-52
2021/11/07 09:45:36;;;;;;;21.23;11.18;;;;;;;12.90;50.46;99495.06;5136096;27;20065;-51
2021/11/07 09:48:13;;;;;;;19.50;10.70;;;;;;;12.77;50.80;99501.06;5136030;27;20022;-52
2021/11/07 09:50:40;;;;;;;17.63;10.02;;;;;;;12.47;50.90;99500.47;5136066;27;20177;-52
2021/11/07 09:53:06;;;;;;;15.25;9.77;;;;;;;12.29;51.62;99498.31;5136025;27;20019;-52
2021/11/07 09:55:33;;;;;;;18.25;10.82;;;;;;;12.13;51.79;99499.41;5117424;27;20559;-52
2021/11/07 09:58:01;;;;;;;16.13;9.63;;;;;;;11.99;52.55;99501.09;5117400;27;20442;-52
2021/11/07 10:00:31;;;;;;;11.23;7.35;;;;;;;11.94;52.44;99501.69;5135774;27;20029;-51
2021/11/07 10:02:57;;;;;;;13.57;8.73;;;;;;;11.87;51.92;99499.97;5135812;27;20365;-52
2021/11/07 10:05:24;;;;;;;31.77;23.15;;;;;;;11.75;53.21;99486.50;5135647;27;20122;-52
2021/11/07 10:08:01;;;;;;;94.55;84.40;;;;;;;11.93;52.76;99493.97;5117018;27;20031;-51
2021/11/07 10:10:31;;;;;;;25.75;22.98;;;;;;;12.04;53.14;99498.75;5117234;27;20023;-52
2021/11/07 10:13:05;;;;;;;21.23;10.77;;;;;;;12.06;53.00;99499.38;5117200;27;20023;-52
2021/11/07 10:15:45;;;;;;;20.90;10.73;;;;;;;11.94;52.57;99493.00;5135591;27;20027;-52
2021/11/07 10:18:21;;;;;;;14.32;8.82;;;;;;;11.78;53.12;99489.56;5135588;27;20058;-52
2021/11/07 10:20:49;;;;;;;10.30;7.65;;;;;;;11.83;53.30;99472.41;5135465;27;20023;-51
2021/11/07 10:23:22;;;;;;;13.50;7.00;;;;;;;11.91;52.90;99480.19;5135375;27;20079;-52
2021/11/07 10:26:04;;;;;;;11.32;6.28;;;;;;;11.97;52.87;99487.34;5135405;27;20034;-52
2021/11/07 10:28:43;;;;;;;12.13;6.65;;;;;;;11.99;51.71;99482.69;5135365;27;20130;-51
2021/11/07 10:31:19;;;;;;;8.57;6.05;;;;;;;11.95;52.30;99492.81;5135299;27;20049;-51
2021/11/07 10:34:14;;;;;;;;;;;;;;;12.09;51.67;99480.59;5135637;27;20110;-52
2021/11/07 10:53:01;;;;;;;15.75;6.13;;;;;;;13.07;49.56;99437.56;5134975;27;20030;-51
2021/11/07 10:55:33;;;;;;;10.88;5.20;;;;;;;13.11;49.08;99438.78;5116244;27;20405;-52
2021/11/07 10:58:02;;;;;;;11.35;5.60;;;;;;;13.30;49.01;99427.53;5134829;27;20028;-51
2021/11/07 11:00:37;;;;;;;10.38;5.30;;;;;;;13.65;48.44;99427.38;5116202;27;20027;-52
2021/11/07 11:03:13;;;;;;;14.35;6.60;;;;;;;13.79;47.48;99428.19;5134669;27;20019;-52
2021/11/07 11:05:52;;;;;;;6.93;4.90;;;;;;;13.63;47.51;99432.03;5134532;27;20031;-51
2021/11/07 11:08:26;;;;;;;8.82;5.30;;;;;;;13.43;47.63;99433.84;5134348;27;20067;-53
2021/11/07 11:13:58;;;;;;;9.20;5.60;;;;;;;13.81;48.54;99422.72;5135118;27;20045;-52
2021/11/07 11:29:56;;;;;;;7.30;5.18;;;;;;;14.16;46.46;99381.84;5091682;27;20041;-52
2021/11/07 11:35:18;;;;;;;13.40;4.78;;;;;;;13.88;46.75;99389.22;5133999;27;20115;-52
2021/11/07 11:37:48;;;;;;;;;;;;;;;14.11;47.39;99378.22;5133694;27;20071;-52
2021/11/07 11:42:48;;;;;;;8.10;4.10;;;;;;;14.12;46.06;99379.84;5134074;27;20038;-52
2021/11/07 11:45:28;;;;;;;7.32;4.57;;;;;;;14.54;46.17;99377.69;5133770;27;20019;-52
2021/11/07 11:49:01;;;;;;;6.88;4.47;;;;;;;15.69;44.52;99363.59;5133777;27;20027;-52
2021/11/07 12:00:46;;;;;;;9.60;4.22;;;;;;;16.15;42.16;99359.75;5133708;27;20046;-51
2021/11/07 12:06:26;;;;;;;7.93;3.75;;;;;;;15.91;42.14;99351.63;5133432;27;20031;-52
2021/11/07 12:12:18;;;;;;;7.20;3.72;;;;;;;17.36;39.46;99330.66;5112834;28;20035;-52
2021/11/07 12:15:02;;;;;;;5.80;3.20;;;;;;;17.14;40.10;99331.22;5112775;28;20034;-51
2021/11/07 12:17:34;;;;;;;11.48;9.95;;;;;;;17.61;39.72;99322.50;5112677;28;20024;-51
2021/11/07 12:20:02;;;;;;;5.88;2.97;;;;;;;18.25;38.74;99321.75;5111164;28;20036;-50
2021/11/07 12:22:32;;;;;;;6.75;2.85;;;;;;;18.77;37.74;99300.41;5112613;28;20015;-50
2021/11/07 12:25:08;;;;;;;6.85;3.45;;;;;;;19.11;36.98;99300.50;5112539;28;20111;-50
2021/11/07 12:27:52;;;;;;;7.50;3.10;;;;;;;19.51;36.23;99286.22;5111217;28;20020;-50
2021/11/07 12:30:23;;;;;;;5.95;3.15;;;;;;;19.87;35.37;99287.56;5110953;28;20024;-49
2021/11/07 12:33:09;;;;;;;5.50;3.08;;;;;;;19.42;35.32;99298.31;5112438;28;20015;-50
2021/11/07 12:35:53;;;;;;;8.75;3.53;;;;;;;18.27;36.63;99290.44;5112456;28;20027;-50
2021/11/07 12:41:28;;;;;;;7.18;2.92;;;;;;;16.67;38.60;99271.91;5112326;28;20034;-50
2021/11/07 12:44:00;;;;;;;9.07;3.60;;;;;;;16.62;39.45;99269.09;5110911;28;20503;-50
2021/11/07 12:49:13;;;;;;;8.95;2.72;;;;;;;16.95;38.92;99250.91;5112331;28;20028;-49
2021/11/07 12:51:46;;;;;;;7.22;3.13;;;;;;;16.66;38.38;99241.13;5112518;28;20434;-50
2021/11/07 12:54:13;;;;;;;4.68;2.58;;;;;;;17.06;38.60;99251.16;5093816;28;20485;-49
2021/11/07 12:56:48;;;;;;;11.18;3.40;;;;;;;17.68;37.58;99238.22;5112218;28;20038;-50
2021/11/07 12:59:19;;;;;;;5.30;2.90;;;;;;;18.02;36.86;99233.09;5112169;28;20034;-50
2021/11/07 13:01:55;;;;;;;3.83;2.03;;;;;;;18.19;36.34;99219.09;5112064;28;20146;-50
2021/11/07 13:04:24;;;;;;;8.07;2.65;;;;;;;18.24;35.17;99204.03;5112004;28;20024;-50
2021/11/07 13:06:56;;;;;;;5.78;1.90;;;;;;;18.19;35.27;99203.13;5111986;28;20020;-50
2021/11/07 13:09:32;;;;;;;5.65;1.95;;;;;;;18.17;35.14;99206.06;5111770;28;20071;-50
2021/11/07 13:12:08;;;;;;;4.97;2.13;;;;;;;18.17;35.46;99204.19;5112112;28;20145;-50
2021/11/07 13:15:12;;;;;;;4.93;1.73;;;;;;;18.27;35.01;99206.25;5116226;28;20039;-50
2021/11/07 13:18:28;;;;;;;3.90;1.40;;;;;;;18.04;35.36;99201.81;5116174;28;20496;-48
2021/11/07 13:26:39;;;;;;;4.55;1.73;;;;;;;17.24;36.47;99199.84;5116015;28;20036;-50
2021/11/07 13:28:56;;;;;;;4.35;1.48;;;;;;;16.92;36.78;99186.91;5107391;28;20032;-50
2021/11/07 13:31:25;;;;;;;3.20;1.48;;;;;;;16.52;37.55;99196.28;5115863;28;20528;-50
2021/11/07 13:33:51;;;;;;;7.28;1.35;;;;;;;16.15;38.57;99199.00;5115866;28;20074;-49
2021/11/07 13:36:19;;;;;;;6.32;2.33;;;;;;;15.66;39.29;99198.16;5115742;28;20024;-52
2021/11/07 13:38:50;;;;;;;7.18;2.70;;;;;;;15.48;40.43;99193.66;5115697;28;20016;-51
2021/11/07 13:41:22;;;;;;;2.97;1.35;;;;;;;15.45;40.75;99202.03;5114260;28;20032;-51
2021/11/07 13:44:11;;;;;;;3.75;1.42;;;;;;;15.38;40.68;99194.16;5115610;28;20289;-52
2021/11/07 13:47:04;;;;;;;9.13;3.00;;;;;;;15.06;41.47;99193.47;5115636;28;20053;-51
2021/11/07 13:49:30;;;;;;;3.50;1.50;;;;;;;14.74;42.07;99201.44;5115464;28;20282;-52
2021/11/07 13:51:59;;;;;;;6.18;1.50;;;;;;;14.43;42.48;99196.13;5115494;28;20024;-52
2021/11/07 13:54:25;;;;;;;3.15;1.27;;;;;;;14.16;43.09;99199.72;5115510;28;20019;-51
2021/11/07 13:56:52;;;;;;;7.60;1.73;;;;;;;14.03;43.50;99207.72;5115412;28;20024;-52
2021/11/07 13:59:30;;;;;;;4.43;1.15;;;;;;;13.88;43.79;99207.16;5115326;28;20068;-51
2021/11/07 14:01:56;;;;;;;6.70;1.67;;;;;;;13.76;44.41;99205.19;5115319;28;20456;-51